createdAt,value
2023-04-26T00:00:53.476Z,-0.75
2023-04-26T00:03:20.881Z,-0.79
2023-04-26T00:05:47.640Z,-0.76
2023-04-26T00:08:14.411Z,-0.76
2023-04-26T00:10:41.222Z,-0.75
2023-04-26T00:13:08.340Z,-0.68
2023-04-26T00:15:35.048Z,-0.62
2023-04-26T00:18:01.544Z,-0.63
2023-04-26T00:20:28.095Z,-0.62
2023-04-26T00:22:54.738Z,-0.65
2023-04-26T00:25:21.387Z,-0.54
2023-04-26T00:28:05.284Z,-0.49
2023-04-26T00:30:32.372Z,-0.45
2023-04-26T00:32:58.957Z,-0.55
2023-04-26T00:35:25.579Z,-0.54
2023-04-26T00:37:52.181Z,-0.57
2023-04-26T00:40:20.849Z,-0.60
2023-04-26T00:42:47.289Z,-0.73
2023-04-26T00:45:13.865Z,-0.79
2023-04-26T00:47:40.845Z,-0.90
2023-04-26T00:50:08.456Z,-0.97
2023-04-26T00:52:35.344Z,-0.94
2023-04-26T00:55:03.011Z,-0.79
2023-04-26T00:57:29.578Z,-0.73
2023-04-26T00:59:56.423Z,-0.65
2023-04-26T01:02:23.054Z,-0.53
2023-04-26T01:04:49.634Z,-0.47
2023-04-26T01:07:16.298Z,-0.41
2023-04-26T01:09:44.165Z,-0.37
2023-04-26T01:12:11.972Z,-0.34
2023-04-26T01:14:40.196Z,-0.28
2023-04-26T01:17:06.781Z,-0.35
2023-04-26T01:19:33.407Z,-0.42
2023-04-26T01:22:00.048Z,-0.43
2023-04-26T01:24:26.608Z,-0.46
2023-04-26T01:26:53.069Z,-0.56
2023-04-26T01:29:21.465Z,-0.68
2023-04-26T01:31:49.352Z,-0.79
2023-04-26T01:34:16.989Z,-0.87
2023-04-26T01:36:43.498Z,-0.90
2023-04-26T01:39:10.312Z,-0.93
2023-04-26T01:41:44.064Z,-1.00
2023-04-26T01:44:10.579Z,-1.02
2023-04-26T01:46:37.097Z,-1.02
2023-04-26T01:49:03.672Z,-1.04
2023-04-26T01:51:30.173Z,-1.03
2023-04-26T01:53:56.683Z,-1.06
2023-04-26T01:56:24.619Z,-1.10
2023-04-26T01:58:51.507Z,-1.13
2023-04-26T02:01:18.304Z,-1.13
2023-04-26T02:03:46.182Z,-1.09
2023-04-26T02:06:12.860Z,-1.09
2023-04-26T02:08:40.829Z,-1.08
2023-04-26T02:11:07.390Z,-1.13
2023-04-26T02:13:33.913Z,-1.11
2023-04-26T02:16:00.459Z,-1.11
2023-04-26T02:18:27.645Z,-1.04
2023-04-26T02:20:54.087Z,-0.86
2023-04-26T02:23:20.577Z,-0.75
2023-04-26T02:25:48.735Z,-0.73
2023-04-26T02:28:16.196Z,-0.71
2023-04-26T02:30:43.196Z,-0.65
2023-04-26T02:33:09.861Z,-0.60
2023-04-26T02:35:39.517Z,-0.60
2023-04-26T02:38:06.040Z,-0.58
2023-04-26T02:40:32.584Z,-0.56
2023-04-26T02:42:59.168Z,-0.54
2023-04-26T02:45:25.714Z,-0.57
2023-04-26T02:47:52.309Z,-0.57
2023-04-26T02:50:18.975Z,-0.58
2023-04-26T02:52:45.458Z,-0.62
2023-04-26T02:55:12.589Z,-0.70
2023-04-26T02:57:39.091Z,-0.74
2023-04-26T03:00:07.870Z,-0.72
2023-04-26T03:02:36.439Z,-0.72
2023-04-26T03:05:03.585Z,-0.70
2023-04-26T03:07:31.383Z,-0.62
2023-04-26T03:09:58.016Z,-0.62
2023-04-26T03:12:24.516Z,-0.65
2023-04-26T03:14:51.041Z,-0.69
2023-04-26T03:17:17.564Z,-0.71
2023-04-26T03:19:44.027Z,-0.84
2023-04-26T03:22:12.388Z,-1.00
2023-04-26T03:24:38.852Z,-1.01
2023-04-26T03:27:05.430Z,-1.02
2023-04-26T03:29:31.878Z,-1.06
2023-04-26T03:31:58.343Z,-1.10
2023-04-26T03:34:24.864Z,-1.13
2023-04-26T03:36:51.863Z,-1.10
2023-04-26T03:39:18.398Z,-1.07
2023-04-26T03:41:45.242Z,-1.10
2023-04-26T03:44:12.432Z,-1.17
2023-04-26T03:46:38.912Z,-1.21
2023-04-26T03:49:05.366Z,-1.24
2023-04-26T03:51:31.862Z,-1.32
2023-04-26T03:54:01.551Z,-1.38
2023-04-26T03:56:28.033Z,-1.54
2023-04-26T03:58:54.589Z,-1.72
2023-04-26T04:01:21.276Z,-1.85
2023-04-26T04:03:47.913Z,-1.84
2023-04-26T04:06:14.664Z,-1.91
2023-04-26T04:08:41.303Z,-1.97
2023-04-26T04:11:07.911Z,-1.94
2023-04-26T04:13:34.664Z,-1.98
2023-04-26T04:16:01.484Z,-1.98
2023-04-26T04:18:28.038Z,-2.11
2023-04-26T04:20:54.592Z,-2.19
2023-04-26T04:23:21.597Z,-2.22
2023-04-26T04:25:49.185Z,-2.20
2023-04-26T04:28:16.477Z,-2.15
2023-04-26T04:30:44.165Z,-2.01
2023-04-26T04:33:10.907Z,-1.98
2023-04-26T04:35:37.433Z,-2.02
2023-04-26T04:38:04.313Z,-2.07
2023-04-26T04:40:32.958Z,-2.09
2023-04-26T04:43:01.062Z,-2.11
2023-04-26T04:45:28.507Z,-2.03
2023-04-26T04:47:57.216Z,-1.87
2023-04-26T04:50:25.859Z,-1.83
2023-04-26T04:52:52.505Z,-1.83
2023-04-26T04:55:19.848Z,-1.44
2023-04-26T04:57:46.354Z,-1.19
2023-04-26T05:00:14.145Z,-0.92
2023-04-26T05:02:42.839Z,-0.67
2023-04-26T05:05:11.238Z,-0.47
2023-04-26T05:07:38.243Z,-0.38
2023-04-26T05:10:05.524Z,-0.27
2023-04-26T05:12:32.023Z,0.07
2023-04-26T05:14:58.495Z,0.23
2023-04-26T05:17:25.091Z,0.40
2023-04-26T05:19:51.698Z,0.67
2023-04-26T05:22:21.061Z,1.26
2023-04-26T05:24:48.328Z,2.18
2023-04-26T05:27:15.169Z,3.03
2023-04-26T05:29:42.021Z,3.60
2023-04-26T05:32:08.880Z,3.47
2023-04-26T05:34:36.736Z,2.44
2023-04-26T05:37:03.584Z,2.08
2023-04-26T05:39:30.593Z,2.16
2023-04-26T05:41:57.169Z,2.43
2023-04-26T05:44:23.670Z,2.37
2023-04-26T05:46:50.190Z,3.25
2023-04-26T05:49:16.671Z,3.11
2023-04-26T05:51:43.398Z,2.51
2023-04-26T05:54:09.929Z,2.42
2023-04-26T05:56:36.583Z,2.30
2023-04-26T05:59:03.093Z,2.18
2023-04-26T06:01:29.627Z,2.21
2023-04-26T06:03:59.884Z,1.62
2023-04-26T06:06:27.655Z,1.84
2023-04-26T06:08:54.563Z,2.04
2023-04-26T06:11:21.367Z,1.78
2023-04-26T06:13:48.071Z,1.25
2023-04-26T06:16:14.653Z,1.08
2023-04-26T06:18:41.377Z,1.70
2023-04-26T06:21:08.121Z,1.43
2023-04-26T06:23:34.644Z,1.14
2023-04-26T06:26:01.301Z,1.12
2023-04-26T06:28:27.858Z,1.42
2023-04-26T06:30:54.403Z,2.73
2023-04-26T06:33:21.021Z,3.66
2023-04-26T06:35:47.644Z,4.32
2023-04-26T06:38:14.166Z,4.70
2023-04-26T06:40:41.284Z,5.07
2023-04-26T06:43:07.765Z,5.11
2023-04-26T06:45:34.307Z,5.13
2023-04-26T06:48:01.651Z,4.50
2023-04-26T06:50:29.175Z,4.97
2023-04-26T06:52:56.229Z,5.42
2023-04-26T06:55:23.068Z,5.88
2023-04-26T06:57:51.020Z,6.24
2023-04-26T07:00:18.168Z,5.52
2023-04-26T07:02:44.857Z,5.81
2023-04-26T07:05:11.760Z,5.76
2023-04-26T07:07:38.279Z,6.14
2023-04-26T07:10:05.318Z,5.57
2023-04-26T07:12:31.865Z,5.05
2023-04-26T07:14:58.386Z,4.22
2023-04-26T07:17:24.909Z,3.74
2023-04-26T07:19:51.568Z,3.48
2023-04-26T07:22:18.084Z,3.62
2023-04-26T07:24:44.562Z,4.03
2023-04-26T07:27:11.233Z,4.17
2023-04-26T07:29:39.035Z,4.49
2023-04-26T07:32:06.695Z,4.68
2023-04-26T07:34:33.281Z,4.49
2023-04-26T07:36:59.833Z,4.58
2023-04-26T07:39:26.397Z,4.54
2023-04-26T07:41:52.915Z,4.34
2023-04-26T07:44:19.394Z,4.50
2023-04-26T07:46:46.053Z,4.54
2023-04-26T07:49:13.934Z,4.81
2023-04-26T07:51:44.267Z,4.65
2023-04-26T07:54:11.061Z,5.32
2023-04-26T07:56:37.627Z,5.28
2023-04-26T07:59:04.973Z,5.27
2023-04-26T08:01:31.441Z,5.56
2023-04-26T08:03:58.480Z,5.32
2023-04-26T08:06:26.046Z,4.82
2023-04-26T08:08:53.734Z,5.02
2023-04-26T08:11:20.370Z,5.02
2023-04-26T08:13:46.974Z,4.80
2023-04-26T08:16:16.716Z,4.89
2023-04-26T08:18:46.663Z,5.07
2023-04-26T08:21:13.665Z,5.19
2023-04-26T08:23:49.344Z,5.54
2023-04-26T08:26:15.796Z,5.08
2023-04-26T08:28:42.298Z,4.89
2023-04-26T08:31:10.159Z,5.10
2023-04-26T08:33:36.934Z,5.12
2023-04-26T08:36:03.573Z,4.84
2023-04-26T08:38:30.701Z,5.08
2023-04-26T08:41:02.547Z,4.88
2023-04-26T08:43:29.945Z,5.28
2023-04-26T08:46:07.142Z,5.85
2023-04-26T08:48:36.372Z,5.92
2023-04-26T08:51:04.157Z,6.18
2023-04-26T08:53:32.059Z,6.05
2023-04-26T08:55:59.505Z,6.43
2023-04-26T08:58:27.064Z,6.89
2023-04-26T09:00:54.248Z,7.09
2023-04-26T09:03:23.453Z,7.27
2023-04-26T09:05:50.512Z,7.14
2023-04-26T09:08:18.204Z,6.53
2023-04-26T09:10:45.254Z,6.15
2023-04-26T09:13:12.340Z,6.32
2023-04-26T09:15:39.606Z,6.86
2023-04-26T09:18:18.520Z,6.89
2023-04-26T09:20:46.348Z,7.07
2023-04-26T09:23:13.037Z,6.98
2023-04-26T09:25:39.794Z,6.65
2023-04-26T09:28:21.408Z,6.75
2023-04-26T09:30:49.073Z,7.05
2023-04-26T09:33:15.902Z,6.94
2023-04-26T09:35:45.042Z,7.15
2023-04-26T09:38:17.594Z,7.42
2023-04-26T09:40:49.456Z,7.57
2023-04-26T09:43:16.915Z,7.21
2023-04-26T09:45:50.454Z,7.27
2023-04-26T09:48:30.411Z,6.96
2023-04-26T09:51:09.031Z,6.76
2023-04-26T09:53:41.147Z,6.26
2023-04-26T09:56:08.978Z,6.72
2023-04-26T09:58:40.670Z,6.47
2023-04-26T10:01:09.199Z,6.16
2023-04-26T10:03:37.119Z,6.56
2023-04-26T10:06:05.258Z,6.93
2023-04-26T10:08:35.065Z,7.48
2023-04-26T10:11:04.550Z,7.59
2023-04-26T10:13:35.520Z,7.69
2023-04-26T10:16:02.907Z,7.67
2023-04-26T10:18:31.456Z,7.95
2023-04-26T10:21:02.399Z,7.55
2023-04-26T10:23:29.312Z,7.58
2023-04-26T10:25:56.467Z,7.28
2023-04-26T10:28:45.441Z,7.41
2023-04-26T10:31:12.108Z,7.09
2023-04-26T10:33:38.628Z,7.04
2023-04-26T10:36:13.049Z,7.01
2023-04-26T10:39:05.730Z,6.92
2023-04-26T10:41:37.376Z,6.79
2023-04-26T10:44:45.670Z,6.83
2023-04-26T10:47:32.262Z,7.12
2023-04-26T10:50:10.423Z,7.40
2023-04-26T10:53:05.593Z,7.50
2023-04-26T10:55:42.093Z,7.24
2023-04-26T10:58:33.410Z,7.32
2023-04-26T11:01:16.544Z,7.58
2023-04-26T11:04:01.615Z,7.90
2023-04-26T11:06:49.182Z,8.03
2023-04-26T11:09:41.717Z,7.54
2023-04-26T11:12:12.956Z,7.54
2023-04-26T11:14:41.796Z,7.33
2023-04-26T11:17:09.668Z,7.45
2023-04-26T11:19:38.734Z,7.27
2023-04-26T11:22:07.928Z,7.30
2023-04-26T11:24:41.760Z,7.38
2023-04-26T11:27:10.128Z,7.48
2023-04-26T11:29:37.342Z,7.54
2023-04-26T11:32:04.455Z,7.79
2023-04-26T11:34:39.234Z,7.64
2023-04-26T11:37:06.958Z,7.59
2023-04-26T11:39:34.451Z,8.12
2023-04-26T11:42:26.800Z,8.37
2023-04-26T11:44:54.181Z,8.09
2023-04-26T11:47:21.860Z,8.22
2023-04-26T11:49:48.533Z,8.43
2023-04-26T11:52:15.390Z,8.59
2023-04-26T11:54:47.023Z,8.66
2023-04-26T11:57:17.172Z,8.60
2023-04-26T11:59:45.178Z,8.85
2023-04-26T12:02:12.094Z,8.91
2023-04-26T12:04:41.906Z,8.85
2023-04-26T12:07:09.530Z,8.51
2023-04-26T12:09:41.713Z,8.49
2023-04-26T12:12:08.271Z,8.55
2023-04-26T12:14:38.248Z,8.25
2023-04-26T12:17:06.769Z,8.24
2023-04-26T12:19:34.299Z,7.79
2023-04-26T12:22:01.174Z,7.63
2023-04-26T12:24:30.451Z,7.66
2023-04-26T12:26:57.190Z,7.44
2023-04-26T12:29:23.972Z,7.44
2023-04-26T12:31:50.524Z,7.52
2023-04-26T12:34:18.444Z,7.79
2023-04-26T12:36:44.960Z,8.01
2023-04-26T12:39:14.470Z,8.03
2023-04-26T12:41:43.300Z,8.17
2023-04-26T12:44:10.897Z,8.58
2023-04-26T12:46:37.556Z,9.31
2023-04-26T12:49:04.832Z,9.43
2023-04-26T12:51:31.965Z,9.13
2023-04-26T12:53:58.607Z,9.08
2023-04-26T12:56:25.555Z,9.12
2023-04-26T12:58:52.327Z,9.36
2023-04-26T13:01:18.860Z,9.69
2023-04-26T13:03:45.749Z,9.97
2023-04-26T13:06:12.905Z,9.51
2023-04-26T13:08:39.544Z,9.34
2023-04-26T13:11:06.046Z,9.39
2023-04-26T13:13:42.900Z,9.81
2023-04-26T13:16:10.687Z,9.80
2023-04-26T13:18:38.374Z,10.00
2023-04-26T13:21:05.204Z,10.15
2023-04-26T13:23:32.804Z,10.31
2023-04-26T13:25:59.285Z,9.79
2023-04-26T13:28:25.936Z,9.98
2023-04-26T13:30:52.768Z,9.94
2023-04-26T13:33:21.448Z,10.47
2023-04-26T13:35:48.486Z,10.95
2023-04-26T13:38:16.027Z,10.45
2023-04-26T13:40:43.286Z,10.03
2023-04-26T13:43:11.175Z,9.29
2023-04-26T13:45:37.693Z,8.95
2023-04-26T13:48:04.541Z,9.05
2023-04-26T13:50:31.258Z,9.03
2023-04-26T13:52:57.924Z,9.01
2023-04-26T13:55:25.592Z,9.14
2023-04-26T13:57:52.177Z,9.46
2023-04-26T14:00:26.156Z,9.48
2023-04-26T14:02:52.993Z,9.92
2023-04-26T14:05:19.755Z,9.81
2023-04-26T14:07:46.555Z,9.71
2023-04-26T14:10:13.285Z,9.55
2023-04-26T14:12:40.038Z,9.27
2023-04-26T14:15:07.828Z,9.30
2023-04-26T14:17:34.538Z,9.13
2023-04-26T14:20:01.177Z,9.48
2023-04-26T14:22:28.096Z,9.69
2023-04-26T14:24:54.933Z,9.80
2023-04-26T14:27:21.617Z,9.89
2023-04-26T14:33:38.688Z,10.08
2023-04-26T14:36:05.546Z,10.19
2023-04-26T14:38:32.046Z,10.46
2023-04-26T14:40:58.746Z,10.03
2023-04-26T14:43:25.522Z,9.77
2023-04-26T14:45:52.272Z,10.04
2023-04-26T14:48:24.768Z,10.09
2023-04-26T14:50:58.425Z,10.10
2023-04-26T14:53:24.981Z,10.15
2023-04-26T14:55:56.274Z,10.40
2023-04-26T14:58:23.381Z,10.67
2023-04-26T15:00:50.619Z,10.59
2023-04-26T15:03:18.026Z,10.55
2023-04-26T15:05:45.402Z,10.65
2023-04-26T15:08:12.005Z,10.68
2023-04-26T15:10:38.505Z,10.71
2023-04-26T15:13:05.463Z,10.63
2023-04-26T15:15:32.155Z,10.38
2023-04-26T15:17:58.811Z,10.13
2023-04-26T15:20:25.499Z,10.15
2023-04-26T15:22:52.070Z,9.94
2023-04-26T15:25:19.653Z,9.86
2023-04-26T15:27:46.953Z,9.73
2023-04-26T15:30:13.747Z,9.76
2023-04-26T15:32:40.594Z,9.75
2023-04-26T15:35:07.956Z,9.83
2023-04-26T15:37:37.494Z,10.05
2023-04-26T15:40:06.068Z,10.11
2023-04-26T15:42:32.515Z,10.22
2023-04-26T15:44:59.068Z,10.31
2023-04-26T15:47:25.646Z,10.23
2023-04-26T15:49:52.333Z,10.08
2023-04-26T15:52:18.942Z,9.79
2023-04-26T15:54:45.673Z,9.75
2023-04-26T15:57:12.298Z,9.64
2023-04-26T15:59:38.954Z,9.47
2023-04-26T16:02:06.089Z,9.25
2023-04-26T16:04:32.858Z,9.40
2023-04-26T16:06:59.796Z,9.45
2023-04-26T16:09:26.354Z,9.40
2023-04-26T16:11:53.142Z,9.15
2023-04-26T16:14:19.729Z,9.02
2023-04-26T16:16:46.318Z,9.14
2023-04-26T16:19:13.055Z,9.14
2023-04-26T16:21:41.586Z,9.18
2023-04-26T16:24:09.337Z,8.93
2023-04-26T16:26:36.328Z,8.82
2023-04-26T16:29:04.392Z,8.88
2023-04-26T16:31:32.339Z,8.73
2023-04-26T16:33:59.334Z,8.61
2023-04-26T16:44:10.279Z,9.04
2023-04-26T16:46:37.255Z,8.99
2023-04-26T16:49:09.356Z,9.01
2023-04-26T16:51:40.572Z,8.97
2023-04-26T16:54:07.360Z,8.90
2023-04-26T16:56:33.949Z,8.89
2023-04-26T16:59:00.649Z,8.78
2023-04-26T17:01:27.311Z,8.72
2023-04-26T17:03:54.467Z,8.74
2023-04-26T17:06:21.291Z,8.76
2023-04-26T17:08:48.063Z,8.81
2023-04-26T17:11:16.993Z,8.80
2023-04-26T17:13:43.847Z,8.83
2023-04-26T17:16:13.411Z,8.72
2023-04-26T17:18:40.174Z,8.56
2023-04-26T17:21:09.997Z,8.50
2023-04-26T17:23:36.776Z,8.41
2023-04-26T17:26:06.128Z,8.37
2023-04-26T17:28:48.893Z,8.24
2023-04-26T17:31:30.627Z,8.14
2023-04-26T17:34:11.080Z,8.06
2023-04-26T17:36:41.121Z,8.02
2023-04-26T17:39:10.774Z,8.02
2023-04-26T17:41:38.643Z,8.02
2023-04-26T17:44:05.384Z,8.04
2023-04-26T17:46:32.007Z,8.04
2023-04-26T17:49:01.737Z,8.08
2023-04-26T17:51:28.283Z,8.09
2023-04-26T17:53:55.225Z,8.17
2023-04-26T17:56:26.853Z,8.22
2023-04-26T17:59:09.806Z,8.21
2023-04-26T18:01:41.098Z,8.11
2023-04-26T18:04:11.144Z,8.08
2023-04-26T18:06:38.165Z,8.07
2023-04-26T18:09:12.434Z,7.99
2023-04-26T18:11:39.029Z,7.91
2023-04-26T18:14:05.466Z,7.85
2023-04-26T18:16:32.019Z,7.77
2023-04-26T18:19:00.983Z,7.65
2023-04-26T18:21:27.973Z,7.55
2023-04-26T18:23:54.644Z,7.45
2023-04-26T18:26:33.555Z,7.36
2023-04-26T18:29:00.785Z,7.27
2023-04-26T18:31:27.926Z,7.19
2023-04-26T18:33:59.969Z,7.11
2023-04-26T18:36:27.177Z,6.99
2023-04-26T18:38:54.272Z,6.92
2023-04-26T18:41:23.831Z,6.84
2023-04-26T18:43:50.520Z,6.83
2023-04-26T18:46:19.901Z,6.82
2023-04-26T18:48:47.295Z,6.80
2023-04-26T18:51:13.886Z,6.77
2023-04-26T18:53:44.941Z,6.73
2023-04-26T18:56:11.689Z,6.69
2023-04-26T18:58:38.853Z,6.64
2023-04-26T19:01:05.522Z,6.63
2023-04-26T19:03:32.362Z,6.71
2023-04-26T19:06:14.822Z,6.75
2023-04-26T19:08:43.470Z,6.68
2023-04-26T19:11:20.473Z,6.52
2023-04-26T19:13:48.241Z,6.43
2023-04-26T19:16:15.000Z,6.43
2023-04-26T19:18:49.034Z,6.38
2023-04-26T19:21:20.169Z,6.32
2023-04-26T19:23:49.707Z,6.29
2023-04-26T19:26:19.244Z,6.34
2023-04-26T19:28:46.122Z,6.36
2023-04-26T19:31:13.010Z,6.28
2023-04-26T19:33:45.136Z,6.25
2023-04-26T19:36:11.625Z,6.27
2023-04-26T19:38:38.090Z,6.37
2023-04-26T19:41:04.645Z,6.33
2023-04-26T19:43:31.240Z,6.16
2023-04-26T19:45:59.712Z,6.01
2023-04-26T19:48:26.714Z,5.84
2023-04-26T19:50:57.375Z,5.63
2023-04-26T19:53:49.689Z,5.48
2023-04-26T19:57:25.246Z,5.37
2023-04-26T19:59:50.096Z,5.54
2023-04-26T20:02:18.182Z,5.56
2023-04-26T20:07:57.241Z,5.47
2023-04-26T20:10:47.810Z,5.47
2023-04-26T20:13:37.023Z,5.39
2023-04-26T20:16:03.745Z,5.35
2023-04-26T20:18:30.783Z,5.38
2023-04-26T20:21:00.162Z,5.11
2023-04-26T20:23:27.159Z,4.89
2023-04-26T20:25:53.877Z,4.88
2023-04-26T20:28:27.626Z,4.86
2023-04-26T20:31:35.867Z,4.65
2023-04-26T20:34:10.962Z,4.54
2023-04-26T20:36:42.529Z,4.59
2023-04-26T20:39:11.748Z,4.62
2023-04-26T20:41:38.199Z,4.56
2023-04-26T20:49:34.517Z,4.39
2023-04-26T20:52:14.013Z,4.44
2023-04-26T20:54:46.293Z,4.42
2023-04-26T20:59:04.779Z,4.31
2023-04-26T21:01:49.861Z,4.23
2023-04-26T21:03:31.555Z,4.18
2023-04-26T21:06:03.608Z,4.10
2023-04-26T21:11:47.416Z,3.95
2023-04-26T21:14:19.343Z,3.87
2023-04-26T21:17:14.271Z,3.83
2023-04-26T21:19:56.462Z,3.80
2023-04-26T21:25:22.429Z,3.66
2023-04-26T21:28:55.850Z,3.58
2023-04-26T21:31:23.576Z,3.46
2023-04-26T21:39:36.773Z,3.37
2023-04-26T21:42:09.784Z,3.31
2023-04-26T21:44:36.745Z,3.22
2023-04-26T21:47:26.544Z,3.18
2023-04-26T21:53:24.157Z,3.11
2023-04-26T22:04:53.999Z,2.91
2023-04-26T22:07:47.116Z,2.85
2023-04-26T22:10:46.523Z,2.83
2023-04-26T22:13:26.058Z,2.79
2023-04-26T22:16:02.097Z,2.80
2023-04-26T22:18:48.776Z,2.79
2023-04-26T22:27:05.396Z,2.65
2023-04-26T22:29:38.552Z,2.58
2023-04-26T22:32:08.841Z,2.58
2023-04-26T22:34:45.119Z,2.49
2023-04-26T22:37:21.120Z,2.39
2023-04-26T22:39:57.944Z,2.32
2023-04-26T22:42:33.803Z,2.42
2023-04-26T22:45:10.863Z,2.46
2023-04-26T22:47:45.263Z,2.43
2023-04-26T22:50:29.390Z,2.32
2023-04-26T22:53:05.487Z,2.20
2023-04-26T22:55:39.017Z,2.05
2023-04-26T22:58:06.965Z,2.08
2023-04-26T23:00:38.669Z,2.02
2023-04-26T23:03:14.501Z,2.07
2023-04-26T23:05:45.722Z,2.05
2023-04-26T23:08:17.180Z,2.13
2023-04-26T23:10:49.211Z,2.16
2023-04-26T23:13:27.394Z,2.16
2023-04-26T23:16:06.546Z,2.17
2023-04-26T23:18:41.154Z,2.11
2023-04-26T23:24:27.189Z,2.16
2023-04-26T23:26:57.548Z,2.12
2023-04-26T23:29:30.125Z,2.08
2023-04-26T23:34:44.004Z,2.04
2023-04-26T23:37:17.381Z,1.97
2023-04-26T23:40:19.948Z,1.95
2023-04-26T23:42:46.691Z,1.96
2023-04-26T23:45:53.379Z,2.01
2023-04-26T23:48:26.318Z,2.01
2023-04-26T23:50:57.180Z,1.97
2023-04-26T23:53:26.166Z,1.99
